Time;durP1;ratioP1;P1;durP2;ratioP2;P2;SDS_P1;SDS_P2;PMS_P1;PMS_P2;Temp;Humidity;BMP_temperature;BMP_pressure;BME280_temperature;BME280_humidity;BME280_pressure;Samples;Min_cycle;Max_cycle;Signal;HPM_P1;HPM_P2
2022/06/27 00:00:53;;;;;;;1.90;1.20;;;;;;;18.22;69.77;95563.16;2055053;28;20054;-59
2022/06/27 00:01:54;;;;;;;2.60;1.17;;;;;;;18.19;70.66;95563.44;2055708;28;20042;-61
2022/06/27 00:02:55;;;;;;;2.25;1.10;;;;;;;18.20;69.81;95557.25;2055594;28;20054;-60
2022/06/27 00:03:57;;;;;;;1.52;1.02;;;;;;;18.20;69.25;95561.63;2055291;28;20062;-59
2022/06/27 00:04:58;;;;;;;1.40;0.90;;;;;;;18.20;69.35;95556.38;2043778;28;20440;-62
2022/06/27 00:05:59;;;;;;;1.60;1.13;;;;;;;18.18;69.57;95558.31;2040183;28;20526;-60
2022/06/27 00:07:01;;;;;;;2.00;1.13;;;;;;;18.15;69.33;95564.66;2055497;28;20090;-59
2022/06/27 00:08:02;;;;;;;1.10;1.00;;;;;;;18.08;69.82;95568.78;2039508;29;20071;-61
2022/06/27 00:09:03;;;;;;;2.13;1.10;;;;;;;17.98;70.78;95570.50;2039597;28;20048;-60
2022/06/27 00:10:05;;;;;;;2.88;1.33;;;;;;;17.88;71.77;95580.09;2056582;28;20545;-62
2022/06/27 00:11:06;;;;;;;2.58;1.05;;;;;;;17.75;73.21;95583.72;2057386;28;20054;-62
2022/06/27 00:12:08;;;;;;;1.40;0.95;;;;;;;17.83;73.62;95585.75;2057142;28;20053;-59
2022/06/27 00:13:09;;;;;;;1.48;1.17;;;;;;;17.84;73.23;95585.59;2049168;28;20051;-61
2022/06/27 00:14:11;;;;;;;2.13;1.25;;;;;;;17.84;74.00;95582.16;2057750;28;20129;-61
2022/06/27 00:15:12;;;;;;;2.17;1.17;;;;;;;17.83;72.67;95581.31;2059967;28;20055;-60
2022/06/27 00:16:13;;;;;;;1.83;1.20;;;;;;;17.81;72.66;95579.78;2056272;28;20069;-60
2022/06/27 00:17:15;;;;;;;1.27;1.17;;;;;;;17.82;72.55;95584.88;2049060;28;20109;-60
2022/06/27 00:18:16;;;;;;;1.80;1.25;;;;;;;17.77;72.69;95579.16;2057138;28;20512;-60
2022/06/27 00:19:17;;;;;;;1.55;1.25;;;;;;;17.73;73.79;95579.56;2056790;28;20043;-60
2022/06/27 00:20:19;;;;;;;1.75;1.20;;;;;;;17.61;74.27;95584.84;2048852;28;20050;-62
2022/06/27 00:21:21;;;;;;;3.93;1.23;;;;;;;17.32;74.51;95554.88;2081536;23;20098;-62
2022/06/27 00:22:22;;;;;;;3.10;1.27;;;;;;;17.55;74.71;95602.88;2030468;29;20050;-62
2022/06/27 00:23:24;;;;;;;2.35;1.27;;;;;;;17.57;76.00;95601.81;2026861;29;20052;-64
2022/06/27 00:24:25;;;;;;;2.60;1.20;;;;;;;17.62;75.45;95604.06;2024831;29;20171;-64
2022/06/27 00:25:26;;;;;;;2.08;1.38;;;;;;;17.64;74.95;95608.22;2022233;29;20068;-62
2022/06/27 00:26:27;;;;;;;2.28;1.10;;;;;;;17.69;74.32;95607.00;2040602;29;20048;-62
2022/06/27 00:27:29;;;;;;;2.72;1.65;;;;;;;17.68;74.44;95607.97;2033852;29;20052;-63
2022/06/27 00:28:30;;;;;;;3.33;1.13;;;;;;;17.71;74.04;95607.72;2025611;29;20067;-62
2022/06/27 00:29:31;;;;;;;3.95;1.20;;;;;;;17.72;74.04;95606.75;2025883;29;20052;-63
2022/06/27 00:30:33;;;;;;;1.83;1.30;;;;;;;17.67;74.11;95601.03;2025167;29;20044;-62
2022/06/27 00:31:34;;;;;;;1.27;1.13;;;;;;;17.63;74.16;95601.28;2024868;29;20123;-62
2022/06/27 00:32:35;;;;;;;2.72;1.17;;;;;;;17.61;74.42;95603.22;2028519;29;20427;-66
2022/06/27 00:33:36;;;;;;;2.63;1.20;;;;;;;17.59;75.24;95612.19;2032673;29;20059;-62
2022/06/27 00:34:38;;;;;;;2.35;1.50;;;;;;;17.57;74.78;95614.94;2017711;29;20132;-62
2022/06/27 00:35:39;;;;;;;2.28;1.33;;;;;;;17.54;75.37;95609.09;2026262;29;20048;-62
2022/06/27 00:36:40;;;;;;;3.33;1.50;;;;;;;17.50;75.66;95599.78;2032692;29;20052;-63
2022/06/27 00:37:42;;;;;;;5.47;1.38;;;;;;;17.49;75.50;95608.66;2025708;29;20525;-63
2022/06/27 00:38:43;;;;;;;4.55;1.40;;;;;;;17.46;75.83;95601.84;2024937;29;20443;-62
2022/06/27 00:39:44;;;;;;;1.70;1.40;;;;;;;17.40;75.36;95611.06;2025830;29;20048;-61
2022/06/27 00:40:46;;;;;;;2.53;1.45;;;;;;;17.35;75.67;95607.97;2025503;29;20051;-64
2022/06/27 00:41:47;;;;;;;2.83;1.50;;;;;;;17.34;75.27;95611.53;2033036;29;20051;-64
2022/06/27 00:42:49;;;;;;;3.15;1.40;;;;;;;17.35;75.28;95613.22;2025688;29;20044;-62
2022/06/27 00:43:50;;;;;;;3.05;1.23;;;;;;;17.36;75.50;95620.13;2025363;29;20056;-64
2022/06/27 00:44:51;;;;;;;3.05;1.38;;;;;;;17.35;75.72;95617.63;2032969;29;20538;-63
2022/06/27 00:45:52;;;;;;;4.55;1.73;;;;;;;17.33;75.93;95627.41;2033685;29;20048;-65
2022/06/27 00:46:54;;;;;;;3.60;1.45;;;;;;;17.31;75.19;95638.03;2016974;29;20063;-62
2022/06/27 00:47:55;;;;;;;1.88;1.20;;;;;;;17.30;76.47;95638.16;2009889;29;20042;-62
2022/06/27 00:48:56;;;;;;;3.00;1.30;;;;;;;17.28;77.21;95642.69;2031975;29;20063;-64
2022/06/27 00:49:58;;;;;;;2.28;1.58;;;;;;;17.22;77.91;95640.56;2040706;29;20056;-61
2022/06/27 00:50:59;;;;;;;2.03;1.40;;;;;;;17.23;78.05;95636.97;2040827;29;20505;-63
2022/06/27 00:52:02;;;;;;;2.78;1.52;;;;;;;17.27;78.68;95641.84;2032542;29;20063;-64
2022/06/27 00:53:04;;;;;;;2.85;1.42;;;;;;;17.30;78.04;95646.84;2025620;29;20087;-62
2022/06/27 00:54:06;;;;;;;2.97;1.40;;;;;;;17.27;78.52;95644.47;2025543;29;20040;-63
2022/06/27 00:55:08;;;;;;;2.33;1.60;;;;;;;17.29;78.56;95645.16;2020924;29;20423;-63
2022/06/27 00:56:09;;;;;;;2.03;1.38;;;;;;;17.34;77.17;95644.81;2032507;29;20060;-63
2022/06/27 00:57:11;;;;;;;2.80;1.35;;;;;;;17.35;76.93;95649.94;2017026;29;20057;-64
2022/06/27 00:58:12;;;;;;;3.20;1.70;;;;;;;17.39;75.48;95655.78;2017348;29;20072;-64
2022/06/27 00:59:15;;;;;;;2.60;1.52;;;;;;;17.42;74.94;95664.22;2033158;29;20048;-63
2022/06/27 01:00:17;;;;;;;1.75;1.25;;;;;;;17.46;74.76;95658.78;2032246;29;20048;-63
2022/06/27 01:01:18;;;;;;;3.05;1.58;;;;;;;17.49;74.42;95655.91;2032304;29;20060;-62
2022/06/27 01:02:19;;;;;;;2.35;1.38;;;;;;;17.52;74.02;95660.91;2025865;29;20061;-64
2022/06/27 01:03:20;;;;;;;3.35;1.38;;;;;;;17.52;73.85;95658.25;2031409;29;20605;-66
2022/06/27 01:04:22;;;;;;;1.95;1.30;;;;;;;17.54;72.83;95653.72;2024771;29;20056;-63
2022/06/27 01:05:23;;;;;;;2.50;1.55;;;;;;;17.57;72.77;95656.94;2017596;29;20052;-64
2022/06/27 01:06:25;;;;;;;1.85;1.38;;;;;;;17.66;72.25;95657.97;2024786;29;20041;-63
2022/06/27 01:07:26;;;;;;;3.63;1.30;;;;;;;17.70;72.75;95669.09;2025432;29;20049;-63
2022/06/27 01:08:27;;;;;;;2.70;1.52;;;;;;;17.64;73.42;95679.13;2024896;29;20541;-65
2022/06/27 01:09:28;;;;;;;3.00;1.60;;;;;;;17.62;73.42;95669.69;2025157;29;20044;-64
2022/06/27 01:10:29;;;;;;;2.90;1.50;;;;;;;17.84;72.11;95677.53;2017740;29;20060;-64
2022/06/27 01:11:31;;;;;;;3.22;1.38;;;;;;;17.87;72.03;95679.06;2020302;29;20068;-63
2022/06/27 01:12:33;;;;;;;3.20;1.38;;;;;;;17.91;72.82;95683.13;2033038;29;20514;-64
2022/06/27 01:13:34;;;;;;;1.85;1.33;;;;;;;17.84;71.89;95693.28;2032437;29;20047;-64
2022/06/27 01:14:35;;;;;;;2.03;1.42;;;;;;;17.78;72.52;95692.94;2025967;29;20067;-63
2022/06/27 01:15:36;;;;;;;2.50;1.70;;;;;;;17.81;72.97;95687.47;2025107;29;20033;-64
2022/06/27 01:16:39;;;;;;;2.55;1.30;;;;;;;18.07;71.28;95673.03;2025667;29;20040;-64
2022/06/27 01:17:40;;;;;;;3.97;1.38;;;;;;;18.10;70.52;95687.72;2025464;29;20549;-64
2022/06/27 01:18:43;;;;;;;2.70;1.40;;;;;;;18.10;70.62;95703.47;2025038;29;20048;-63
2022/06/27 01:19:44;;;;;;;2.35;1.60;;;;;;;17.99;71.96;95712.25;2025077;29;20055;-64
2022/06/27 01:20:46;;;;;;;4.05;1.42;;;;;;;18.09;70.47;95704.44;2032511;29;20044;-64
2022/06/27 01:21:51;;;;;;;3.17;1.30;;;;;;;18.18;70.39;95693.19;2023566;29;20059;-66
2022/06/27 01:22:53;;;;;;;1.88;1.55;;;;;;;18.28;69.76;95693.22;2025902;29;20043;-63
2022/06/27 01:23:56;;;;;;;3.65;1.35;;;;;;;18.25;70.48;95693.50;2017306;29;20121;-64
2022/06/27 01:25:00;;;;;;;2.28;1.50;;;;;;;18.20;70.02;95704.41;2018724;29;20052;-65
2022/06/27 01:26:02;;;;;;;3.67;1.35;;;;;;;18.18;70.59;95689.72;2033429;29;20063;-65
2022/06/27 01:27:04;;;;;;;4.07;1.60;;;;;;;18.14;69.82;95697.00;2025202;29;20048;-66
2022/06/27 01:28:06;;;;;;;2.60;1.50;;;;;;;18.10;70.81;95698.22;2010051;29;20125;-66
2022/06/27 01:29:09;;;;;;;2.60;1.58;;;;;;;18.07;70.44;95695.84;2018057;29;20052;-64
2022/06/27 01:30:11;;;;;;;4.90;1.42;;;;;;;18.10;70.71;95689.53;2009439;29;20056;-65
2022/06/27 01:31:13;;;;;;;5.35;1.45;;;;;;;18.05;71.25;95695.97;2017818;29;20045;-64
2022/06/27 01:32:14;;;;;;;1.85;1.40;;;;;;;18.03;70.83;95694.44;2015912;29;20057;-65
2022/06/27 01:33:16;;;;;;;4.47;1.13;;;;;;;18.01;71.26;95693.72;2025258;29;20131;-65
2022/06/27 01:34:18;;;;;;;2.20;1.38;;;;;;;17.91;71.68;95693.66;2017053;29;20178;-65
2022/06/27 01:35:20;;;;;;;3.85;1.50;;;;;;;17.87;71.34;95700.09;2017289;29;20076;-65
2022/06/27 01:37:42;;;;;;;4.82;1.40;;;;;;;17.81;71.47;95716.34;2032847;29;20051;-65
2022/06/27 01:38:43;;;;;;;1.70;1.40;;;;;;;17.72;73.12;95711.78;2016904;29;20041;-65
2022/06/27 01:39:44;;;;;;;5.85;1.80;;;;;;;17.66;73.26;95728.03;2017551;29;20052;-65
2022/06/27 01:40:46;;;;;;;2.67;1.30;;;;;;;17.62;74.70;95741.41;2024975;29;20044;-64
2022/06/27 01:41:50;;;;;;;1.73;1.30;;;;;;;17.53;75.67;95830.56;2017423;29;20060;-63
2022/06/27 01:42:51;;;;;;;2.53;1.60;;;;;;;17.87;72.36;95873.44;2025454;29;20044;-65
2022/06/27 01:43:53;;;;;;;2.92;1.45;;;;;;;18.02;71.42;95871.44;2017372;29;20049;-64
2022/06/27 01:44:54;;;;;;;2.67;1.40;;;;;;;18.12;70.27;95817.16;2016697;29;20495;-65
2022/06/27 01:45:55;;;;;;;3.42;1.40;;;;;;;18.18;69.66;95763.31;2024541;29;20056;-64
2022/06/27 01:47:06;;;;;;;2.47;1.50;;;;;;;18.10;71.55;95860.31;2024343;29;20055;-65
2022/06/27 01:48:07;;;;;;;4.80;1.67;;;;;;;18.42;68.96;95858.56;2024722;29;20542;-64
2022/06/27 01:49:08;;;;;;;4.00;1.30;;;;;;;18.50;68.33;95834.28;2024834;29;20060;-64
2022/06/27 01:50:11;;;;;;;1.52;1.13;;;;;;;18.53;67.97;95841.91;2024835;29;20651;-64
2022/06/27 01:51:16;;;;;;;1.95;1.30;;;;;;;18.57;68.08;95853.00;2017611;29;20412;-63
2022/06/27 01:52:18;;;;;;;1.85;1.38;;;;;;;18.68;67.04;95839.81;2024537;29;20582;-64
2022/06/27 01:53:19;;;;;;;5.35;1.70;;;;;;;18.57;67.36;95832.81;2024431;29;20056;-64
2022/06/27 01:54:21;;;;;;;3.22;1.20;;;;;;;18.73;66.81;95849.00;2024434;29;20055;-63
2022/06/27 01:55:24;;;;;;;2.08;1.25;;;;;;;18.77;66.73;95846.16;2017784;29;20523;-63
2022/06/27 01:56:26;;;;;;;2.22;1.13;;;;;;;18.81;66.68;95840.50;2017535;29;20504;-64
2022/06/27 01:57:27;;;;;;;2.00;1.17;;;;;;;18.94;66.09;95845.59;2024901;29;20056;-65
2022/06/27 01:58:28;;;;;;;3.22;1.15;;;;;;;18.97;65.74;95840.06;2017615;29;20535;-64
2022/06/27 01:59:30;;;;;;;1.85;1.10;;;;;;;18.99;65.86;95842.59;2016412;29;20049;-63
2022/06/27 02:00:34;;;;;;;2.20;1.25;;;;;;;18.97;65.97;95845.34;2021129;29;20044;-63
2022/06/27 02:01:35;;;;;;;5.82;1.30;;;;;;;19.00;65.21;95849.50;2032205;29;20055;-62
2022/06/27 02:02:38;;;;;;;3.35;1.35;;;;;;;19.09;65.59;95854.03;2024852;29;20092;-60
2022/06/27 02:03:39;;;;;;;3.38;1.27;;;;;;;19.12;65.49;95859.84;2017407;29;20052;-64
2022/06/27 02:04:41;;;;;;;3.63;1.35;;;;;;;19.12;65.52;95864.28;2025149;29;20462;-63
2022/06/27 02:05:43;;;;;;;3.10;1.27;;;;;;;19.18;65.11;95861.13;2032541;29;20048;-65
2022/06/27 02:06:45;;;;;;;4.32;1.48;;;;;;;19.04;66.27;95867.56;2032475;29;20047;-64
2022/06/27 02:07:46;;;;;;;2.17;1.40;;;;;;;18.98;66.93;95861.94;2032551;29;20048;-63
2022/06/27 02:08:50;;;;;;;1.50;1.10;;;;;;;19.10;66.14;95838.09;2008843;29;20527;-64
2022/06/27 02:09:51;;;;;;;3.65;1.23;;;;;;;19.01;66.78;95840.69;2012414;29;20062;-64
2022/06/27 02:10:56;;;;;;;3.42;1.55;;;;;;;18.98;67.65;95843.53;2025448;29;20048;-64
2022/06/27 02:12:18;;;;;;;3.25;1.25;;;;;;;18.93;68.35;95841.31;2024460;29;20057;-65
2022/06/27 02:13:19;;;;;;;2.17;1.50;;;;;;;18.87;68.82;95854.94;2017743;29;20434;-63
2022/06/27 02:14:24;;;;;;;3.00;1.38;;;;;;;18.94;68.09;95840.34;2010914;29;20053;-64
2022/06/27 02:15:25;;;;;;;3.53;1.40;;;;;;;18.91;68.79;95851.13;2023550;29;20041;-64
2022/06/27 02:16:27;;;;;;;4.72;1.67;;;;;;;18.85;69.59;95862.97;2024327;29;20048;-62
2022/06/27 02:17:28;;;;;;;2.88;1.50;;;;;;;18.89;69.17;95868.81;2024484;29;20048;-65
2022/06/27 02:18:30;;;;;;;11.52;1.95;;;;;;;18.81;70.01;95871.25;2024446;29;20056;-63
2022/06/27 02:19:31;;;;;;;2.10;1.50;;;;;;;18.79;70.65;95870.53;2017361;29;20049;-63
2022/06/27 02:20:33;;;;;;;4.78;2.53;;;;;;;18.76;71.42;95857.63;2016974;29;20053;-65
2022/06/27 02:21:34;;;;;;;3.47;2.20;;;;;;;18.75;71.51;95850.72;2024226;29;20045;-63
2022/06/27 02:22:35;;;;;;;4.55;1.80;;;;;;;18.75;71.34;95858.59;2024613;29;20056;-64
2022/06/27 02:23:37;;;;;;;6.72;2.10;;;;;;;18.68;71.94;95850.34;2024181;29;20045;-64
2022/06/27 02:24:38;;;;;;;4.38;2.05;;;;;;;18.63;72.54;95847.25;2024279;29;20051;-63
2022/06/27 02:25:39;;;;;;;4.35;2.25;;;;;;;18.63;72.42;95844.63;2024773;29;20056;-64
2022/06/27 02:26:41;;;;;;;3.80;2.00;;;;;;;18.62;72.64;95859.56;2017226;29;20061;-65
2022/06/27 02:27:43;;;;;;;5.43;2.35;;;;;;;18.52;73.79;95851.59;2016796;29;20049;-64
2022/06/27 02:28:44;;;;;;;3.78;1.88;;;;;;;18.54;73.66;95855.91;2032505;29;20051;-65
2022/06/27 02:29:45;;;;;;;4.68;1.85;;;;;;;18.51;73.74;95849.09;2032677;29;20103;-63
2022/06/27 02:30:47;;;;;;;5.88;2.13;;;;;;;18.49;73.52;95845.75;2016737;29;20802;-65
2022/06/27 02:31:49;;;;;;;5.18;2.10;;;;;;;18.42;73.93;95849.84;2024651;29;20049;-63
2022/06/27 02:32:50;;;;;;;4.47;2.30;;;;;;;18.45;74.13;95841.72;2031133;29;20048;-64
2022/06/27 02:33:53;;;;;;;3.63;2.38;;;;;;;18.40;74.18;95842.06;2025012;29;20048;-64
2022/06/27 02:34:55;;;;;;;6.22;2.17;;;;;;;18.44;74.01;95845.28;2017169;29;20439;-64
2022/06/27 02:35:57;;;;;;;6.80;2.78;;;;;;;18.38;74.95;95840.53;2017713;29;20060;-63
2022/06/27 02:36:58;;;;;;;6.75;2.30;;;;;;;18.29;74.79;95829.78;2024618;29;20067;-63
2022/06/27 02:37:59;;;;;;;2.92;2.15;;;;;;;18.33;74.50;95829.53;2016913;29;20049;-61
2022/06/27 02:39:01;;;;;;;5.30;2.00;;;;;;;18.30;75.11;95830.63;2020135;29;20055;-63
2022/06/27 02:40:02;;;;;;;4.50;2.45;;;;;;;18.26;75.16;95837.94;2017112;29;20559;-64
2022/06/27 02:41:04;;;;;;;3.78;2.17;;;;;;;18.24;75.59;95857.41;2023601;29;20052;-64
2022/06/27 02:42:07;;;;;;;4.20;2.38;;;;;;;18.32;74.82;95841.03;2024160;29;20109;-63
2022/06/27 02:43:08;;;;;;;3.95;2.35;;;;;;;18.29;74.87;95848.19;2024221;29;20056;-63
2022/06/27 02:44:12;;;;;;;3.60;2.00;;;;;;;18.28;75.02;95837.78;2031797;29;20048;-64
2022/06/27 02:45:14;;;;;;;4.43;2.00;;;;;;;18.28;74.98;95849.16;2039962;29;20043;-63
2022/06/27 02:46:15;;;;;;;5.60;2.28;;;;;;;18.22;75.10;95839.13;2040137;29;20055;-63
2022/06/27 02:47:20;;;;;;;9.70;2.40;;;;;;;18.22;75.46;95843.56;2016623;29;20040;-63
2022/06/27 02:48:23;;;;;;;5.75;2.20;;;;;;;18.21;74.89;95841.88;2017565;29;20052;-65
2022/06/27 02:49:24;;;;;;;5.65;2.17;;;;;;;18.20;74.97;95834.94;2031906;29;20545;-64
2022/06/27 02:50:26;;;;;;;6.45;2.40;;;;;;;18.26;74.65;95840.56;2032198;29;20048;-64
2022/06/27 02:51:28;;;;;;;3.92;2.20;;;;;;;18.18;75.63;95847.41;2032056;29;20044;-63
2022/06/27 02:52:32;;;;;;;3.38;2.25;;;;;;;18.19;75.03;95842.00;2016789;29;20056;-63
2022/06/27 02:53:45;;;;;;;5.03;2.20;;;;;;;18.16;74.89;95847.50;2018503;29;20060;-64
2022/06/27 02:55:13;;;;;;;4.60;1.90;;;;;;;18.13;75.42;95847.75;2009524;29;20079;-64
2022/06/27 02:56:22;;;;;;;4.38;2.67;;;;;;;18.11;75.19;95854.09;2024772;29;20050;-63
2022/06/27 02:57:35;;;;;;;3.65;2.38;;;;;;;18.15;74.95;95850.25;2025305;29;20717;-64
2022/06/27 02:58:45;;;;;;;6.65;2.10;;;;;;;18.22;75.16;95848.81;2018306;29;20056;-62
2022/06/27 02:59:46;;;;;;;4.43;2.08;;;;;;;18.21;74.56;95853.22;2026172;29;20044;-64
2022/06/27 03:00:48;;;;;;;7.63;2.20;;;;;;;18.12;75.80;95853.13;2024358;29;20055;-63
2022/06/27 03:01:50;;;;;;;5.50;2.10;;;;;;;18.12;75.63;95853.94;2024443;29;20048;-63
2022/06/27 03:02:56;;;;;;;5.78;2.20;;;;;;;18.04;76.04;95858.97;2024105;29;20056;-63
2022/06/27 03:04:01;;;;;;;2.78;2.03;;;;;;;18.07;74.91;95853.50;2024912;29;20053;-63
2022/06/27 03:05:04;;;;;;;4.20;1.98;;;;;;;18.08;75.24;95848.13;2031619;29;20052;-64
2022/06/27 03:06:08;;;;;;;5.85;1.88;;;;;;;17.92;76.12;95846.84;2032565;29;20047;-64
2022/06/27 03:07:11;;;;;;;4.53;2.00;;;;;;;17.99;75.98;95835.72;2016801;29;20555;-63
2022/06/27 03:08:12;;;;;;;3.13;2.28;;;;;;;17.98;76.08;95846.34;2017036;29;20052;-64
2022/06/27 03:09:14;;;;;;;4.22;2.25;;;;;;;18.02;76.02;95848.63;2032334;29;20048;-64
2022/06/27 03:10:16;;;;;;;3.38;2.10;;;;;;;18.00;75.82;95839.19;2024398;29;20511;-64
2022/06/27 03:11:21;;;;;;;3.85;2.08;;;;;;;18.00;76.30;95847.06;2024854;29;20059;-63
2022/06/27 03:12:23;;;;;;;3.45;1.90;;;;;;;17.98;76.29;95838.47;2031338;29;20510;-62
2022/06/27 03:13:26;;;;;;;2.67;1.90;;;;;;;18.00;75.92;95852.31;2023972;29;20048;-63
2022/06/27 03:14:31;;;;;;;4.93;2.47;;;;;;;17.95;76.57;95857.91;2024727;29;20052;-63
2022/06/27 03:15:33;;;;;;;2.63;1.90;;;;;;;17.99;75.71;95853.25;2032344;29;20063;-64
2022/06/27 03:16:36;;;;;;;4.43;2.03;;;;;;;18.00;75.68;95854.94;2024141;29;20052;-64
2022/06/27 03:17:37;;;;;;;4.90;1.90;;;;;;;17.96;76.16;95851.72;2016513;29;20049;-63
2022/06/27 03:18:59;;;;;;;3.83;2.10;;;;;;;18.00;75.37;95850.50;2014022;29;20037;-64
2022/06/27 03:20:19;;;;;;;3.78;1.98;;;;;;;17.84;76.89;95840.38;2029569;29;20052;-63
2022/06/27 03:21:29;;;;;;;3.10;1.95;;;;;;;17.83;76.44;95843.97;2023799;29;20047;-64
2022/06/27 03:22:34;;;;;;;2.50;1.90;;;;;;;17.81;76.59;95837.16;2019342;29;20089;-64
2022/06/27 03:23:36;;;;;;;2.78;1.98;;;;;;;17.75;77.27;95838.47;2024948;29;20052;-63
2022/06/27 03:24:37;;;;;;;5.18;1.90;;;;;;;17.78;76.64;95835.59;2016573;29;20049;-64
2022/06/27 03:25:39;;;;;;;4.07;2.10;;;;;;;17.86;76.67;95845.53;2024682;29;20052;-61
2022/06/27 03:26:42;;;;;;;4.75;2.28;;;;;;;17.88;76.53;95835.72;2024415;29;20462;-64
2022/06/27 03:27:43;;;;;;;5.00;1.70;;;;;;;17.76;76.90;95831.41;2019583;29;20519;-65
2022/06/27 03:28:45;;;;;;;4.03;2.08;;;;;;;17.72;76.75;95836.06;2024479;29;20048;-64
2022/06/27 03:29:46;;;;;;;5.00;2.08;;;;;;;17.67;77.54;95840.00;2023424;29;20044;-62
2022/06/27 03:30:48;;;;;;;2.85;1.80;;;;;;;17.63;77.95;95844.66;2017403;29;20048;-64
2022/06/27 03:31:50;;;;;;;4.53;1.83;;;;;;;17.64;77.30;95838.44;2017067;29;20457;-63
2022/06/27 03:32:52;;;;;;;4.55;1.83;;;;;;;17.59;77.54;95843.25;2016571;29;20423;-63
2022/06/27 03:33:57;;;;;;;2.03;1.60;;;;;;;17.68;76.35;95833.81;2017459;29;20056;-64
2022/06/27 03:35:07;;;;;;;5.60;1.45;;;;;;;17.61;77.35;95831.66;2029545;29;20415;-63
2022/06/27 03:36:09;;;;;;;3.60;1.70;;;;;;;17.64;77.12;95833.19;2025290;29;20059;-63
2022/06/27 03:37:11;;;;;;;2.28;1.27;;;;;;;17.68;76.54;95825.94;2016746;29;20108;-63
2022/06/27 03:38:13;;;;;;;2.13;1.45;;;;;;;17.67;76.44;95825.09;2008796;29;20056;-63
2022/06/27 03:39:14;;;;;;;3.25;1.60;;;;;;;17.67;77.16;95832.09;2017459;29;20053;-63
2022/06/27 03:40:16;;;;;;;3.10;1.45;;;;;;;17.66;76.31;95826.03;2024628;29;20072;-64
2022/06/27 03:41:22;;;;;;;2.30;1.60;;;;;;;17.66;76.74;95822.56;2032416;29;20063;-63
2022/06/27 03:42:24;;;;;;;2.20;1.60;;;;;;;17.64;76.85;95810.41;2032582;29;20411;-63
2022/06/27 03:43:26;;;;;;;3.08;1.85;;;;;;;17.63;77.00;95815.78;2032028;29;20052;-64
2022/06/27 03:44:29;;;;;;;2.33;1.70;;;;;;;17.62;76.68;95809.69;2032058;29;20695;-64
2022/06/27 03:45:30;;;;;;;3.38;1.63;;;;;;;17.56;77.19;95815.44;2033424;29;20044;-63
2022/06/27 03:46:31;;;;;;;3.17;1.95;;;;;;;17.55;77.88;95810.28;2033512;29;20040;-64
2022/06/27 03:47:48;;;;;;;3.55;1.90;;;;;;;17.55;77.99;95807.66;2018230;29;20057;-64
2022/06/27 03:50:29;;;;;;;3.67;2.00;;;;;;;17.47;79.49;95824.00;2034103;29;20055;-63
2022/06/27 03:51:31;;;;;;;7.80;2.33;;;;;;;17.43;79.54;95830.47;2025450;29;20566;-64
2022/06/27 03:52:32;;;;;;;6.00;2.20;;;;;;;17.39;79.47;95834.25;2013578;29;20617;-65
2022/06/27 03:53:34;;;;;;;3.30;1.95;;;;;;;17.36;80.01;95837.97;2025552;29;20053;-63
2022/06/27 03:54:35;;;;;;;3.13;2.10;;;;;;;17.38;79.35;95837.84;2025422;29;20045;-63
2022/06/27 03:55:36;;;;;;;3.35;2.40;;;;;;;17.33;79.88;95834.75;2026018;29;20056;-64
2022/06/27 03:56:38;;;;;;;4.97;1.95;;;;;;;17.34;80.16;95839.84;2026116;29;20040;-63
2022/06/27 03:57:46;;;;;;;3.95;2.00;;;;;;;17.33;79.71;95840.81;2026058;29;20519;-64
2022/06/27 03:58:48;;;;;;;3.88;1.90;;;;;;;17.37;79.82;95851.91;2019559;29;20056;-64
2022/06/27 03:59:49;;;;;;;2.50;1.83;;;;;;;17.33;79.69;95846.06;2033346;29;20043;-64
2022/06/27 04:00:50;;;;;;;4.50;1.88;;;;;;;17.33;79.81;95842.63;2032873;29;20079;-65
2022/06/27 04:01:52;;;;;;;3.25;1.70;;;;;;;17.31;79.08;95845.34;2032711;29;20060;-64
2022/06/27 04:02:53;;;;;;;3.42;1.70;;;;;;;17.35;79.44;95846.78;2033504;29;20055;-64
2022/06/27 04:04:03;;;;;;;4.00;1.55;;;;;;;17.37;79.26;95850.16;2026848;29;20052;-64
2022/06/27 04:05:05;;;;;;;4.03;1.80;;;;;;;17.33;79.99;95853.94;2022055;29;20057;-64
2022/06/27 04:06:06;;;;;;;3.78;1.70;;;;;;;17.33;79.28;95861.81;2010494;29;20537;-63
2022/06/27 04:07:08;;;;;;;3.15;1.55;;;;;;;17.34;79.26;95862.66;2013976;29;20053;-64
2022/06/27 04:08:09;;;;;;;4.55;1.75;;;;;;;17.32;79.45;95870.66;2024944;29;20040;-64
2022/06/27 04:09:13;;;;;;;3.00;1.80;;;;;;;17.23;80.50;95871.34;2018020;29;20049;-65
2022/06/27 04:10:14;;;;;;;3.25;1.85;;;;;;;17.15;80.90;95865.84;2025860;29;20056;-64
2022/06/27 04:11:16;;;;;;;2.00;1.65;;;;;;;17.10;80.88;95862.72;2033290;29;20056;-64
2022/06/27 04:12:20;;;;;;;5.05;1.90;;;;;;;17.09;81.30;95858.44;2018550;29;20049;-63
2022/06/27 04:13:41;;;;;;;3.53;1.77;;;;;;;17.19;79.74;95859.41;2028839;29;20055;-63
2022/06/27 04:14:50;;;;;;;2.05;1.40;;;;;;;17.27;79.41;95866.69;2033329;29;20499;-64
2022/06/27 04:16:07;;;;;;;2.95;1.70;;;;;;;17.22;80.21;95872.31;2025757;29;20518;-64
2022/06/27 04:17:27;;;;;;;3.13;1.88;;;;;;;17.25;79.98;95871.22;2032397;29;20422;-64
2022/06/27 04:18:48;;;;;;;2.42;1.77;;;;;;;17.18;80.35;95868.22;2036127;29;20070;-63
2022/06/27 04:19:55;;;;;;;3.20;1.80;;;;;;;17.18;80.76;95866.44;2033759;29;20048;-65
2022/06/27 04:21:10;;;;;;;2.92;1.48;;;;;;;17.20;80.77;95867.16;2028530;29;20063;-64
2022/06/27 04:22:31;;;;;;;4.72;1.80;;;;;;;17.22;80.07;95867.06;2020107;29;20064;-64
2022/06/27 04:23:52;;;;;;;4.38;1.63;;;;;;;17.19;80.41;95876.00;2030442;29;20503;-64
2022/06/27 04:25:09;;;;;;;4.43;1.92;;;;;;;17.18;80.85;95874.28;2033546;29;20062;-64
2022/06/27 04:26:17;;;;;;;4.63;1.50;;;;;;;17.20;80.95;95875.03;2033702;29;20044;-64
2022/06/27 04:27:20;;;;;;;4.90;1.88;;;;;;;17.19;80.78;95870.75;2026095;29;20063;-63
2022/06/27 04:28:22;;;;;;;2.72;1.50;;;;;;;17.24;80.50;95874.78;2025529;29;20048;-63
2022/06/27 04:29:23;;;;;;;3.92;1.70;;;;;;;17.28;80.60;95869.19;2033384;29;20063;-62
2022/06/27 04:30:25;;;;;;;6.30;1.73;;;;;;;17.24;81.00;95861.66;2025565;29;20041;-64
2022/06/27 04:31:27;;;;;;;3.78;2.13;;;;;;;17.21;80.62;95862.72;2009362;29;20052;-63
2022/06/27 04:32:29;;;;;;;3.00;1.67;;;;;;;17.33;80.08;95864.44;2020691;29;20044;-64
2022/06/27 04:33:31;;;;;;;2.85;1.63;;;;;;;17.33;80.32;95864.44;2025062;29;20051;-63
2022/06/27 04:34:32;;;;;;;3.20;1.50;;;;;;;17.36;80.53;95871.25;2025671;29;20438;-63
2022/06/27 04:35:33;;;;;;;3.65;1.60;;;;;;;17.41;79.03;95872.56;2033364;29;20063;-63
2022/06/27 04:36:34;;;;;;;3.67;1.50;;;;;;;17.49;78.85;95873.78;2033815;29;20130;-63
2022/06/27 04:37:41;;;;;;;2.67;1.35;;;;;;;17.48;79.34;95872.09;2033477;29;20506;-64
2022/06/27 04:39:03;;;;;;;3.13;1.60;;;;;;;17.48;79.77;95869.47;2027971;29;20711;-63
2022/06/27 04:40:23;;;;;;;4.97;1.60;;;;;;;17.62;79.37;95874.50;2030784;29;20048;-63
2022/06/27 04:41:25;;;;;;;3.55;1.50;;;;;;;17.61;79.33;95868.44;2027916;29;20044;-63
2022/06/27 04:42:27;;;;;;;3.28;1.73;;;;;;;17.60;79.57;95886.91;2033141;29;20429;-64
2022/06/27 04:43:28;;;;;;;2.97;1.58;;;;;;;17.53;79.23;95889.16;2025834;29;20151;-63
2022/06/27 04:44:30;;;;;;;4.18;1.50;;;;;;;17.51;79.84;95892.84;2024720;29;20044;-63
2022/06/27 04:45:33;;;;;;;5.88;1.40;;;;;;;17.50;79.21;95889.38;2025876;29;20048;-63
2022/06/27 04:46:45;;;;;;;2.10;1.55;;;;;;;17.57;79.04;95890.59;2026361;29;20044;-64
2022/06/27 04:48:04;;;;;;;1.55;1.45;;;;;;;17.63;78.48;95881.41;2032938;29;20052;-62
2022/06/27 04:49:06;;;;;;;2.38;1.38;;;;;;;17.58;79.78;95881.75;2032957;29;20052;-64
2022/06/27 04:50:10;;;;;;;2.50;1.45;;;;;;;17.58;79.44;95881.75;2040681;29;20055;-63
2022/06/27 04:51:13;;;;;;;4.18;1.63;;;;;;;17.55;78.59;95881.16;2025458;29;20055;-64
2022/06/27 04:52:15;;;;;;;2.75;1.23;;;;;;;17.48;79.69;95880.81;2025179;29;20055;-63
2022/06/27 04:53:19;;;;;;;4.07;1.55;;;;;;;17.47;79.83;95884.38;2033604;29;20048;-63
2022/06/27 04:54:21;;;;;;;3.58;1.35;;;;;;;17.51;79.37;95884.97;2031920;29;20056;-63
2022/06/27 04:55:24;;;;;;;2.53;1.20;;;;;;;17.54;79.03;95890.00;2033093;29;20048;-62
2022/06/27 04:56:25;;;;;;;2.00;1.25;;;;;;;17.58;79.22;95889.63;2017340;29;20052;-65
2022/06/27 04:57:27;;;;;;;2.13;1.15;;;;;;;17.60;78.21;95890.38;2010341;29;20417;-63
2022/06/27 04:58:28;;;;;;;2.92;1.10;;;;;;;17.71;78.27;95893.97;2017030;29;20049;-63
2022/06/27 04:59:30;;;;;;;3.05;1.15;;;;;;;17.69;77.42;95901.09;2017935;29;20052;-63
2022/06/27 05:00:42;;;;;;;2.10;1.00;;;;;;;17.69;78.34;95904.56;2034583;29;20044;-64
2022/06/27 05:01:50;;;;;;;1.88;1.20;;;;;;;17.70;78.29;95903.63;2039161;29;20137;-64